Time;durP1;ratioP1;P1;durP2;ratioP2;P2;SDS_P1;SDS_P2;PMS_P1;PMS_P2;Temp;Humidity;BMP_temperature;BMP_pressure;BME280_temperature;BME280_humidity;BME280_pressure;Samples;Min_cycle;Max_cycle;Signal;HPM_P1;HPM_P2
2023/01/18 00:10:01;;;;;;;52.00;26.00;;;;;;;0.92;82.98;96084.04;435298;1256;113086;-41
2023/01/18 00:20:10;;;;;;;55.60;28.50;;;;;;;1.00;83.23;96076.24;435286;1253;108255;-40
2023/01/18 00:50:32;;;;;;;53.90;29.80;;;;;;;1.24;83.97;96054.24;435194;1256;99253;-40
2023/01/18 01:00:40;;;;;;;63.40;33.00;;;;;;;1.26;84.28;96052.66;435380;1256;111328;-40
2023/01/18 01:10:49;;;;;;;56.60;32.10;;;;;;;1.23;84.27;96047.30;435347;1256;107571;-40
2023/01/18 01:31:22;;;;;;;40.50;21.80;;;;;;;1.27;84.43;96032.64;435158;1253;111792;-40
2023/01/18 01:41:31;;;;;;;32.10;21.90;;;;;;;1.25;84.56;96016.98;435149;1254;107627;-40
2023/01/18 01:51:40;;;;;;;39.50;23.30;;;;;;;1.20;84.75;95989.26;435305;1256;99201;-41
2023/01/18 02:01:48;;;;;;;36.10;22.30;;;;;;;1.13;85.08;95983.92;435139;1253;107960;-41
2023/01/18 02:11:56;;;;;;;55.20;30.20;;;;;;;1.10;85.38;95986.90;435357;1253;98003;-40
2023/01/18 02:22:01;;;;;;;40.30;24.00;;;;;;;1.05;85.47;95986.46;435246;1256;111832;-41
2023/01/18 02:32:10;;;;;;;37.90;23.30;;;;;;;1.06;85.58;95980.79;435114;1253;106789;-41
2023/01/18 02:52:39;;;;;;;24.20;18.30;;;;;;;1.17;85.74;95981.34;435625;1250;426286;-40
2023/01/18 03:02:48;;;;;;;35.80;20.90;;;;;;;1.10;86.13;95979.45;435184;1255;119591;-43
2023/01/18 03:13:01;;;;;;;38.70;20.60;;;;;;;0.97;86.24;95976.48;435220;1257;111326;-40
2023/01/18 03:43:54;;;;;;;15.90;10.80;;;;;;;0.95;86.40;95953.44;435090;1253;111327;-40
2023/01/18 03:54:01;;;;;;;17.10;11.30;;;;;;;1.07;86.68;95961.44;435177;1253;107411;-40
2023/01/18 04:04:07;;;;;;;22.40;13.30;;;;;;;1.11;86.76;95932.79;435124;1256;99135;-40
2023/01/18 04:14:14;;;;;;;18.70;10.80;;;;;;;1.07;86.84;95916.95;435213;1256;111131;-40
2023/01/18 04:24:21;;;;;;;15.70;8.20;;;;;;;1.02;86.96;95873.32;435122;1253;107123;-40
2023/01/18 04:34:28;;;;;;;10.80;7.20;;;;;;;1.04;87.86;95826.30;435112;1253;99269;-41
2023/01/18 04:44:35;;;;;;;7.70;6.10;;;;;;;1.04;89.14;95802.05;435103;1259;107783;-40
2023/01/18 04:54:43;;;;;;;6.60;5.10;;;;;;;1.09;88.73;95848.54;435066;1253;99243;-40
2023/01/18 05:04:51;;;;;;;6.40;5.00;;;;;;;1.12;89.05;95858.73;435153;1257;112849;-41
2023/01/18 05:14:59;;;;;;;5.80;5.00;;;;;;;1.17;89.06;95855.16;435071;1253;107987;-40
2023/01/18 05:25:03;;;;;;;7.00;4.50;;;;;;;1.13;89.46;95850.58;435083;1256;99236;-40
2023/01/18 05:35:11;;;;;;;10.40;6.10;;;;;;;1.11;89.57;95852.84;435097;1255;107732;-41
2023/01/18 05:45:19;;;;;;;7.00;5.30;;;;;;;1.13;89.53;95854.99;435052;1255;99244;-40
2023/01/18 05:55:26;;;;;;;10.10;6.20;;;;;;;1.12;89.31;95855.87;435081;1253;110767;-41
2023/01/18 06:05:34;;;;;;;10.10;6.50;;;;;;;1.13;89.39;95885.30;435025;1253;107792;-41
2023/01/18 06:15:40;;;;;;;15.80;9.20;;;;;;;1.02;89.53;95883.38;435088;1258;99250;-40
2023/01/18 06:25:47;;;;;;;8.80;7.20;;;;;;;0.96;89.51;95884.15;435094;1253;110180;-39
2023/01/18 06:35:54;;;;;;;14.60;10.20;;;;;;;0.90;89.27;95867.44;435076;1253;108447;-40
2023/01/18 06:46:03;;;;;;;21.40;13.50;;;;;;;0.88;89.46;95839.63;435118;1253;98025;-40
2023/01/18 06:56:11;;;;;;;17.00;11.50;;;;;;;0.97;89.58;95846.59;434980;1256;107572;-41
2023/01/18 07:06:19;;;;;;;19.50;13.50;;;;;;;1.03;89.68;95878.55;435148;1259;98056;-41
2023/01/18 07:16:27;;;;;;;21.40;12.90;;;;;;;1.04;89.59;95870.38;435250;1257;112833;-39
2023/01/18 07:26:34;;;;;;;17.90;12.70;;;;;;;1.07;89.73;95855.12;435184;1253;107921;-41
2023/01/18 07:36:42;;;;;;;24.80;14.60;;;;;;;1.17;90.03;95853.61;435112;1256;99126;-41
2023/01/18 07:46:49;;;;;;;17.60;12.60;;;;;;;1.31;90.22;95871.41;435055;1253;106370;-40
2023/01/18 07:56:58;;;;;;;39.70;20.80;;;;;;;1.43;90.26;95870.80;434978;1257;99230;-40
2023/01/18 08:07:05;;;;;;;29.10;15.40;;;;;;;1.54;90.14;95871.84;435091;1253;111276;-40
2023/01/18 08:17:13;;;;;;;22.20;13.20;;;;;;;1.58;90.17;95861.27;435087;1253;108206;-40
2023/01/18 08:27:21;;;;;;;13.90;9.10;;;;;;;1.53;90.28;95846.58;435145;1257;99231;-41
2023/01/18 08:37:26;;;;;;;15.30;10.70;;;;;;;1.61;90.43;95858.18;435018;1259;108423;-41
2023/01/18 08:47:33;;;;;;;16.80;10.50;;;;;;;1.74;90.46;95886.48;435088;1253;97925;-40
2023/01/18 08:57:41;;;;;;;21.90;12.30;;;;;;;1.87;90.40;95876.90;435141;1256;111822;-40
2023/01/18 09:07:49;;;;;;;17.60;10.70;;;;;;;1.79;90.41;95874.63;435047;1254;107649;-40
2023/01/18 09:17:57;;;;;;;14.00;9.80;;;;;;;1.79;90.31;95897.86;435096;1256;98831;-41
2023/01/18 09:28:05;;;;;;;12.00;9.10;;;;;;;1.92;90.38;95897.36;435019;1253;108022;-42
2023/01/18 09:38:12;;;;;;;15.80;10.70;;;;;;;2.03;90.33;95895.87;434988;1256;98925;-41
2023/01/18 09:48:20;;;;;;;18.80;12.10;;;;;;;2.16;90.59;95896.20;435085;1259;111888;-40
2023/01/18 09:58:30;;;;;;;17.90;11.00;;;;;;;2.13;90.36;95898.50;435187;1255;107489;-41
2023/01/18 10:08:38;;;;;;;29.50;13.80;;;;;;;2.04;90.39;95915.69;435065;1257;99285;-39
2023/01/18 10:28:59;;;;;;;22.10;12.30;;;;;;;2.00;90.05;95927.31;435016;1254;106728;-40
2023/01/18 10:39:14;;;;;;;17.50;11.90;;;;;;;2.07;90.15;95933.34;435097;1253;97995;-40
2023/01/18 10:49:36;;;;;;;22.30;14.50;;;;;;;2.10;90.07;95952.73;435131;1254;107707;-40
2023/01/18 10:59:43;;;;;;;28.30;15.40;;;;;;;2.16;90.36;95973.61;435127;1254;97996;-39
2023/01/18 11:09:53;;;;;;;37.20;19.00;;;;;;;2.14;90.29;95984.02;435186;1257;112975;-39
2023/01/18 11:50:31;;;;;;;21.30;14.10;;;;;;;2.56;90.31;96012.17;435095;1256;98135;-40
2023/01/18 12:00:37;;;;;;;26.60;15.60;;;;;;;2.74;90.39;96032.14;435165;1256;111905;-40
2023/01/18 12:10:43;;;;;;;27.80;14.40;;;;;;;2.75;90.17;96043.83;435103;1254;109445;-39
2023/01/18 12:20:51;;;;;;;35.80;19.10;;;;;;;2.49;90.12;96050.70;435245;1255;98834;-40
2023/01/18 12:30:59;;;;;;;27.90;17.30;;;;;;;2.38;90.15;96059.23;435106;1257;112923;-40
2023/01/18 12:41:28;;;;;;;28.50;16.70;;;;;;;2.36;90.08;96064.46;435153;1254;106872;-40
2023/01/18 12:51:37;;;;;;;23.90;14.40;;;;;;;2.44;90.16;96087.58;435131;1254;98725;-40
2023/01/18 13:01:45;;;;;;;26.90;12.30;;;;;;;2.44;90.16;96117.30;435005;1257;106168;-40
2023/01/18 13:11:57;;;;;;;20.90;13.40;;;;;;;2.40;90.10;96143.08;435028;1255;98980;-40
2023/01/18 13:22:04;;;;;;;23.90;14.10;;;;;;;2.36;90.53;96177.89;435053;1257;111843;-40
2023/01/18 13:32:28;;;;;;;31.40;19.40;;;;;;;2.23;90.36;96204.02;435296;1254;108689;-40
2023/01/18 13:42:34;;;;;;;23.50;17.30;;;;;;;2.06;90.29;96221.77;435103;1257;98015;-39
2023/01/18 13:52:42;;;;;;;25.20;15.50;;;;;;;2.02;90.52;96241.05;435095;1257;107596;-42
2023/01/18 14:02:55;;;;;;;27.50;16.90;;;;;;;2.03;90.69;96277.13;435133;1254;99228;-40
2023/01/18 14:13:05;;;;;;;30.70;16.70;;;;;;;2.08;90.63;96306.00;435161;1254;112343;-39
2023/01/18 14:23:34;;;;;;;26.90;16.20;;;;;;;2.13;90.60;96328.98;434676;1254;108545;-40
2023/01/18 14:33:43;;;;;;;43.00;21.90;;;;;;;2.13;90.89;96351.92;434454;1257;99123;-39
2023/01/18 14:53:59;;;;;;;30.90;19.30;;;;;;;1.84;91.14;96402.78;434102;1266;237343;-40
2023/01/18 15:04:18;;;;;;;67.70;34.60;;;;;;;1.83;91.28;96424.54;434536;1255;99269;-40
2023/01/18 15:14:29;;;;;;;43.90;26.50;;;;;;;1.88;91.31;96442.36;434432;1256;108750;-39
2023/01/18 15:24:37;;;;;;;33.60;21.50;;;;;;;1.94;91.36;96452.94;434463;1258;98010;-40
2023/01/18 15:34:45;;;;;;;25.30;17.00;;;;;;;1.94;91.32;96468.37;434335;1254;111567;-40
2023/01/18 15:44:55;;;;;;;37.30;21.20;;;;;;;1.87;91.52;96485.08;434435;1254;106389;-40
2023/01/18 15:55:05;;;;;;;29.80;18.80;;;;;;;1.82;91.38;96508.65;434437;1254;98522;-39
2023/01/18 16:05:19;;;;;;;34.00;17.20;;;;;;;1.79;91.46;96540.62;434376;1254;107447;-40
2023/01/18 16:25:32;;;;;;;29.30;16.80;;;;;;;1.79;91.58;96582.95;434658;1253;110092;-40
2023/01/18 16:45:48;;;;;;;51.40;27.40;;;;;;;1.77;91.64;96606.91;435199;1257;99318;-39
2023/01/18 17:06:02;;;;;;;38.00;21.00;;;;;;;1.77;91.49;96643.55;435261;1254;108790;-38
2023/01/18 17:16:11;;;;;;;36.70;20.70;;;;;;;1.86;91.54;96666.34;435213;1256;98368;-39
2023/01/18 17:26:18;;;;;;;36.10;21.60;;;;;;;1.90;91.48;96697.98;435187;1253;108179;-40
2023/01/18 17:36:25;;;;;;;40.60;23.40;;;;;;;1.94;91.47;96725.08;435265;1254;98799;-39
2023/01/18 17:46:34;;;;;;;63.20;34.10;;;;;;;1.92;91.49;96732.52;435290;1257;110005;-40
2023/01/18 17:56:40;;;;;;;62.00;31.20;;;;;;;1.82;91.59;96749.55;435362;1256;107953;-40
2023/01/18 18:06:51;;;;;;;51.40;28.80;;;;;;;1.75;91.42;96769.41;435143;1253;99258;-40
2023/01/18 18:27:05;;;;;;;38.80;22.50;;;;;;;1.90;91.59;96822.20;435267;1254;107352;-39
2023/01/18 18:37:14;;;;;;;45.10;25.80;;;;;;;1.99;91.67;96833.77;435228;1253;99226;-39
2023/01/18 18:47:22;;;;;;;61.70;31.90;;;;;;;2.05;91.56;96836.21;435237;1253;108776;-39
2023/01/18 18:57:30;;;;;;;53.80;28.90;;;;;;;1.90;91.43;96846.34;435242;1253;97962;-40
2023/01/18 19:07:37;;;;;;;53.00;29.90;;;;;;;1.81;91.41;96848.31;435270;1253;112798;-40
2023/01/18 19:17:48;;;;;;;53.40;29.80;;;;;;;1.77;91.15;96845.27;435197;1253;108943;-39
2023/01/18 19:27:55;;;;;;;50.10;28.20;;;;;;;1.62;91.16;96867.31;435334;1256;98898;-40
2023/01/18 19:38:02;;;;;;;48.60;27.10;;;;;;;1.55;91.16;96891.31;435254;1253;107807;-39
2023/01/18 19:48:08;;;;;;;78.10;39.70;;;;;;;1.48;91.31;96897.27;435346;1253;98805;-40
2023/01/18 19:58:15;;;;;;;83.70;41.10;;;;;;;1.29;91.28;96927.95;435266;1256;111610;-39
2023/01/18 20:08:23;;;;;;;86.50;40.60;;;;;;;1.07;91.13;96940.64;435318;1253;108090;-40
2023/01/18 20:28:37;;;;;;;78.40;41.60;;;;;;;0.77;90.93;96946.55;435359;1252;107889;-41
2023/01/18 20:38:45;;;;;;;87.00;44.30;;;;;;;0.65;90.76;96967.56;435323;1252;98624;-38
2023/01/18 20:48:52;;;;;;;73.20;42.50;;;;;;;0.49;90.74;96989.45;435222;1252;110754;-40
2023/01/18 20:59:00;;;;;;;80.90;44.40;;;;;;;0.38;90.82;96997.29;435288;1253;108242;-39
2023/01/18 21:09:07;;;;;;;105.40;55.30;;;;;;;0.16;90.71;97015.45;435303;1256;99304;-39
2023/01/18 21:19:15;;;;;;;166.30;75.60;;;;;;;-0.08;90.87;97027.27;435383;1256;112205;-42
2023/01/18 21:29:23;;;;;;;194.10;85.20;;;;;;;-0.25;91.01;97021.37;435316;1253;107267;-40
2023/01/18 21:39:30;;;;;;;162.30;86.70;;;;;;;-0.31;90.91;97018.38;435306;1256;99279;-39
2023/01/18 22:00:18;;;;;;;147.70;75.10;;;;;;;-0.41;90.84;97042.95;434967;1252;107306;-39
2023/01/18 22:10:26;;;;;;;139.00;71.80;;;;;;;-0.45;90.67;97067.13;435311;1253;99219;-39
2023/01/18 22:20:33;;;;;;;176.60;80.10;;;;;;;-0.51;90.75;97079.80;435325;1256;108190;-39
2023/01/18 22:30:40;;;;;;;154.40;71.20;;;;;;;-0.61;91.00;97121.60;435382;1256;98010;-39
2023/01/18 22:40:47;;;;;;;144.20;67.50;;;;;;;-0.58;91.32;97132.11;435386;1253;110796;-39
2023/01/18 23:00:59;;;;;;;126.10;68.10;;;;;;;-0.22;91.69;97148.93;435346;1252;99230;-40
2023/01/18 23:11:07;;;;;;;121.30;59.00;;;;;;;-0.15;91.35;97188.08;435208;1256;111903;-40
2023/01/18 23:21:14;;;;;;;99.70;51.00;;;;;;;-0.13;91.43;97210.74;435248;1253;108424;-41
2023/01/18 23:31:21;;;;;;;97.70;50.80;;;;;;;-0.03;91.66;97199.60;435266;1256;99230;-39
